EW9842 Weather Reports


Display with metric or nautical units.
time (UTC)temp
F
wind
direction
speed
MPH
gust
MPH
rain 1hr
in
rain 24hr
in
rain mn
in
humidity
%
barometer
mb
20210618183039 78 340 3.0 0.0 0.00 0.00 0.00 43 1019.1
20210618181537 76 351 3.0 0.0 0.00 0.00 0.00 46 1019.4
20210618180044 75 351 3.0 0.0 0.00 0.00 0.00 47 1019.4
20210618174534 75 310 2.0 0.0 0.00 0.00 0.00 47 1019.4
20210618173039 74 340 2.0 0.0 0.00 0.00 0.00 50 1019.8
20210618171540 73 325 2.0 0.0 0.00 0.00 0.00 51 1019.8
20210618170049 72 330 2.0 0.0 0.00 0.00 0.00 50 1019.8
20210618164535 71 295 1.0 0.0 0.00 0.00 0.00 55 1019.8
20210618163052 69 294 1.0 0.0 0.00 0.00 0.00 58 1020.1
20210618161539 68 307 2.0 0.0 0.00 0.00 0.00 58 1020.1
20210618160045 69 318 2.0 0.0 0.00 0.00 0.00 57 1020.1
20210618154539 69 328 2.0 0.0 0.00 0.00 0.00 55 1020.1
20210618153033 68 336 0.0 0.0 0.00 0.00 0.00 55 1020.1
20210618151537 67 22 0.0 0.0 0.00 0.00 0.00 59 1020.1
20210618150039 63 149 0.0 0.0 0.00 0.00 0.00 64 1020.1
20210618144540 60 135 1.0 0.0 0.00 0.00 0.00 67 1020.5
20210618143040 58 135 1.0 0.0 0.00 0.00 0.00 71 1020.5
20210618141557 56 135 1.0 0.0 0.00 0.00 0.00 72 1020.5
20210618140049 55 135 1.0 0.0 0.00 0.00 0.00 73 1020.5
20210618134542 54 142 3.0 0.0 0.00 0.00 0.00 73 1020.5
20210618133055 52 160 3.0 0.0 0.00 0.00 0.00 77 1020.5
20210618131540 51 161 2.0 0.0 0.00 0.00 0.00 78 1020.5
20210618130040 51 153 3.0 0.0 0.00 0.00 0.00 78 1020.1
20210618124600 51 155 3.0 0.0 0.00 0.00 0.00 78 1020.1
20210618123052 50 154 3.0 0.0 0.00 0.00 0.00 79 1020.1
20210618121545 50 139 3.0 0.0 0.00 0.00 0.00 77 1020.1
20210618120039 52 147 3.0 0.0 0.00 0.00 0.00 75 1020.1
20210618114537 52 160 3.0 0.0 0.00 0.00 0.00 75 1020.1
20210618113048 51 149 4.0 0.0 0.00 0.00 0.00 75 1020.1
20210618111540 51 147 4.0 0.0 0.00 0.00 0.00 77 1020.1
20210618110035 51 152 3.0 0.0 0.00 0.00 0.00 76 1020.1
20210618104536 52 144 2.0 0.0 0.00 0.00 0.00 74 1020.1
20210618103047 53 156 3.0 0.0 0.00 0.00 0.00 73 1020.1
20210618101536 53 155 4.0 0.0 0.00 0.00 0.00 73 1020.1
20210618100040 52 149 4.0 0.0 0.00 0.00 0.00 73 1020.5
20210618094539 53 136 3.0 0.0 0.00 0.00 0.00 71 1020.5
20210618093044 53 147 3.0 0.0 0.00 0.00 0.00 71 1020.1
20210618091537 54 151 3.0 0.0 0.00 0.00 0.00 71 1020.5
20210618090031 54 144 3.0 0.0 0.00 0.00 0.00 70 1020.5
20210618084546 54 157 4.0 0.0 0.00 0.00 0.00 69 1020.5
20210618083042 55 151 3.0 0.0 0.00 0.00 0.00 68 1020.5
20210618081538 55 153 3.0 0.0 0.00 0.00 0.00 68 1020.5
20210618080033 55 152 4.0 0.0 0.00 0.00 0.00 68 1020.5
20210618074536 56 154 4.0 0.0 0.00 0.00 0.00 67 1020.5
20210618073036 56 154 3.0 0.0 0.00 0.00 0.00 66 1020.5
20210618071531 57 150 4.0 0.0 0.00 0.00 0.00 66 1020.8
20210618070039 57 146 3.0 0.0 0.00 0.00 0.00 66 1020.8
20210618064532 57 154 4.0 0.0 0.00 0.00 0.00 67 1020.8
20210618063036 58 140 3.0 0.0 0.00 0.00 0.00 67 1020.8
20210618061539 58 145 4.0 0.0 0.00 0.00 0.00 67 1020.8
20210618060047 59 140 3.0 0.0 0.00 0.00 0.00 66 1020.8
20210618054547 59 145 4.0 0.0 0.00 0.00 0.00 67 1020.8
20210618053042 59 141 4.0 0.0 0.00 0.00 0.00 67 1020.8
20210618051542 59 138 4.0 0.0 0.00 0.00 0.00 68 1020.8
20210618050047 59 144 4.0 0.0 0.00 0.00 0.00 69 1020.8
20210618044531 59 152 3.0 0.0 0.00 0.00 0.00 67 1020.5
20210618043046 61 147 3.0 0.0 0.00 0.00 0.00 65 1020.5
20210618041542 63 142 3.0 0.0 0.00 0.00 0.00 63 1020.1
20210618040048 66 137 3.0 0.0 0.00 0.00 0.00 56 1020.1
20210618034548 70 177 2.0 0.0 0.00 0.00 0.00 52 1020.1
20210618033038 74 168 1.0 0.0 0.00 0.00 0.00 44 1020.1
20210618031553 76 232 1.0 0.0 0.00 0.00 0.00 38 1020.1
20210618030044 77 250 2.0 0.0 0.00 0.00 0.00 36 1020.1
20210618024542 78 259 2.0 0.0 0.00 0.00 0.00 35 1020.1
20210618023045 78 269 3.0 0.0 0.00 0.00 0.00 34 1020.5
20210618021533 79 265 3.0 0.0 0.00 0.00 0.00 33 1020.5
20210618020034 79 277 3.0 0.0 0.00 0.00 0.00 33 1020.5
20210618014532 79 282 5.0 0.0 0.00 0.00 0.00 32 1020.5
20210618013050 79 284 6.0 0.0 0.00 0.00 0.00 32 1020.8
20210618011549 80 284 5.0 0.0 0.00 0.00 0.00 33 1020.8
20210618010037 80 286 5.0 0.0 0.00 0.00 0.00 32 1020.8
20210618004540 81 294 6.0 0.0 0.00 0.00 0.00 32 1020.8
20210618003039 81 295 5.0 0.0 0.00 0.00 0.00 32 1020.8
20210618001544 82 304 5.0 0.0 0.00 0.00 0.00 34 1020.8
20210618000044 82 299 5.0 0.0 0.00 0.00 0.00 34 1020.8
20210617234540 82 322 5.0 0.0 0.00 0.00 0.00 34 1020.8
20210617231535 82 342 4.0 0.0 0.00 0.00 0.00 35 1020.8
20210617230046 82 352 4.0 0.0 0.00 0.00 0.00 36 1021.2
20210617224545 82 6 3.0 0.0 0.00 0.00 0.00 38 1021.2
20210617223037 82 1 4.0 0.0 0.00 0.00 0.00 39 1021.2
20210617221533 82 1 3.0 0.0 0.00 0.00 0.00 40 1021.6
20210617220032 80 11 4.0 0.0 0.00 0.00 0.00 40 1021.6
20210617214532 81 19 4.0 0.0 0.00 0.00 0.00 40 1021.6
20210617213055 81 324 2.0 0.0 0.00 0.00 0.00 40 1021.9
20210617211535 80 327 2.0 0.0 0.00 0.00 0.00 41 1021.9
20210617210031 78 341 3.0 0.0 0.00 0.00 0.00 42 1022.3
20210617204538 77 325 4.0 0.0 0.00 0.00 0.00 43 1022.3
20210617203043 77 342 4.0 0.0 0.00 0.00 0.00 45 1022.3
20210617201553 75 305 4.0 0.0 0.00 0.00 0.00 45 1022.6
20210617200034 75 302 5.0 0.0 0.00 0.00 0.00 47 1022.6
20210617194538 75 329 4.0 0.0 0.00 0.00 0.00 46 1022.6
20210617193030 74 359 4.0 0.0 0.00 0.00 0.00 45 1023.0
20210617191542 75 330 4.0 0.0 0.00 0.00 0.00 47 1023.0
20210617190039 74 358 3.0 0.0 0.00 0.00 0.00 47 1023.3
20210617184529 73 342 3.0 0.0 0.00 0.00 0.00 48 1023.3